< Typhoon 198415 1984 Season Typhoon 198417 >
Typhoon 198416 (MAURY)
General InformationTrack Information on Google MapsDetailed Wind InformationList of All Images || Disaster Info.ResourceGoogle EarthGE AnimationAtom FeedGeoJSON
Detalied Best Track (Time Zone = UTC)
Year Month Day Hour Lat. Long. Pressure (hPa) Wind (kt) Class Image Chart
1984 9 26 06 21.5 146.5 1004 0 2 Image Chart
1984 9 26 12 22.1 147.2 1004 0 2 Image Chart
1984 9 26 18 22.6 147.9 1006 0 2 Image Chart
1984 9 27 00 23.0 148.5 1006 0 2 Image Chart
1984 9 27 06 23.4 149.3 1004 0 2 Image Chart
1984 9 27 12 23.7 150.0 1002 0 2 Image Chart
1984 9 27 18 23.8 150.6 998 0 2 Image Chart
1984 9 28 00 24.0 151.3 996 0 2 Image Chart
1984 9 28 06 23.9 151.9 990 50 4 Image Chart
1984 9 28 12 23.7 151.9 990 50 4 Image Chart
1984 9 28 18 23.8 151.6 990 50 4 Image Chart
1984 9 29 00 24.2 150.6 994 50 4 Image Chart
1984 9 29 06 24.8 150.4 992 50 4 Image Chart
1984 9 29 12 25.4 150.2 992 50 4 Image Chart
1984 9 29 18 26.4 150.0 992 50 4 Image Chart
1984 9 30 00 28.1 149.6 996 45 3 Image Chart
1984 9 30 06 30.5 149.2 996 40 3 Image Chart
1984 9 30 12 33.2 149.0 996 40 3 Image Chart
1984 9 30 18 34.4 149.5 994 40 3 Image Chart
1984 10 1 00 35.4 151.5 994 45 3 Image Chart
1984 10 1 06 36.8 154.0 994 45 3 Image Chart
1984 10 1 12 38.0 157.5 996 45 3 Image Chart
1984 10 1 18 39.0 161.0 1000 0 6 Image Chart
1984 10 2 00 40.0 167.0 1000 0 6 Image Chart
Japan Meteorological Agency Best Track Data | Correction Date : 1992-10-21
< Typhoon 198415 1984 Season Typhoon 198417 >

Help